createdAt,value
2018-03-24T16:20:18.369Z,10.30
2018-03-24T16:22:46.023Z,10.30
2018-03-24T16:25:13.537Z,10.20
2018-03-24T16:27:41.066Z,10.20
2018-03-24T16:30:08.558Z,10.10
2018-03-24T16:32:36.073Z,10.00
2018-03-24T16:35:03.568Z,10.00
2018-03-24T16:37:31.097Z,10.00
2018-03-24T16:39:58.622Z,10.00
2018-03-24T16:42:26.153Z,10.00
2018-03-24T16:44:53.640Z,9.90
2018-03-24T16:47:21.144Z,9.90
2018-03-24T16:49:48.680Z,9.90
2018-03-24T16:52:16.221Z,9.80
2018-03-24T16:54:43.713Z,9.80
2018-03-24T16:57:11.214Z,9.80
2018-03-24T16:59:38.761Z,9.80
2018-03-24T17:02:06.296Z,9.80
2018-03-24T17:04:33.801Z,9.70
2018-03-24T17:07:01.295Z,9.70
2018-03-24T17:09:29.564Z,9.70
2018-03-24T17:11:57.052Z,9.60
2018-03-24T17:14:24.592Z,9.60
2018-03-24T17:16:52.100Z,9.60
2018-03-24T17:19:19.600Z,9.50
2018-03-24T17:21:47.135Z,9.40
2018-03-24T17:24:14.640Z,9.40
2018-03-24T17:26:42.175Z,9.30
2018-03-24T17:29:09.702Z,9.30
2018-03-24T17:31:37.215Z,9.20
2018-03-24T17:34:04.707Z,9.10
2018-03-24T17:36:32.209Z,9.10
2018-03-24T17:38:59.716Z,9.10
2018-03-24T17:41:27.253Z,8.90
2018-03-24T17:43:54.739Z,8.80
2018-03-24T17:46:22.237Z,8.80
2018-03-24T17:48:49.758Z,8.70
2018-03-24T17:51:17.277Z,8.70
2018-03-24T17:53:44.820Z,8.60
2018-03-24T17:56:13.103Z,8.40
2018-03-24T17:58:41.386Z,8.30
2018-03-24T18:01:08.887Z,8.30
2018-03-24T18:03:36.363Z,8.30
2018-03-24T18:06:04.622Z,8.10
2018-03-24T18:08:32.118Z,8.00
2018-03-24T18:10:59.608Z,8.00
2018-03-24T18:13:27.117Z,7.90
2018-03-24T18:15:54.642Z,7.90
2018-03-24T18:18:22.176Z,7.70
2018-03-24T18:20:49.700Z,7.60
2018-03-24T18:23:17.191Z,7.50
2018-03-24T18:25:44.678Z,7.40
2018-03-24T18:28:12.213Z,7.30
2018-03-24T18:30:39.677Z,7.20
2018-03-24T18:33:07.173Z,7.20
2018-03-24T18:35:34.710Z,7.10
2018-03-24T18:38:02.243Z,6.90
2018-03-24T18:40:29.740Z,6.90
2018-03-24T18:42:57.237Z,6.90
2018-03-24T18:45:25.507Z,6.60
2018-03-24T18:47:53.774Z,6.60
2018-03-24T18:50:21.247Z,6.60
2018-03-24T18:52:49.491Z,6.60
2018-03-24T18:55:17.017Z,6.60
2018-03-24T18:57:44.530Z,6.50
2018-03-24T19:00:12.052Z,6.40
2018-03-24T19:02:39.579Z,6.30
2018-03-24T19:05:07.072Z,6.20
2018-03-24T19:07:34.581Z,6.30
2018-03-24T19:10:02.103Z,6.30
2018-03-24T19:12:29.580Z,6.20
2018-03-24T19:14:57.864Z,6.00
2018-03-24T19:17:26.105Z,6.00
2018-03-24T19:19:54.525Z,6.00
2018-03-24T19:22:22.000Z,5.90
2018-03-24T19:24:49.581Z,6.00
2018-03-24T19:27:17.067Z,5.90
2018-03-24T19:29:45.365Z,5.70
2018-03-24T19:32:12.882Z,5.70
2018-03-24T19:34:40.681Z,5.60
2018-03-24T19:37:08.977Z,5.40
2018-03-24T19:39:36.467Z,5.40
2018-03-24T19:42:04.015Z,5.40
2018-03-24T19:44:31.745Z,5.30
2018-03-24T19:46:59.340Z,5.30
2018-03-24T19:49:27.578Z,5.30
2018-03-24T19:51:55.862Z,5.20
2018-03-24T19:54:23.363Z,5.20
2018-03-24T19:56:50.871Z,5.10
2018-03-24T19:59:18.380Z,5.00
2018-03-24T20:01:45.887Z,5.00
2018-03-24T20:04:13.412Z,4.90
2018-03-24T20:06:40.936Z,4.80
2018-03-24T20:09:08.577Z,4.60
2018-03-24T20:11:37.011Z,4.60
2018-03-24T20:14:04.524Z,4.60
2018-03-24T20:16:32.045Z,4.60
2018-03-24T20:18:59.578Z,4.60
2018-03-24T20:21:27.099Z,4.70
2018-03-24T20:23:54.589Z,4.60
2018-03-24T20:26:22.078Z,4.60
2018-03-24T20:28:49.572Z,4.50
2018-03-24T20:31:17.089Z,4.40
2018-03-24T20:33:44.609Z,4.40
2018-03-24T20:36:12.095Z,4.40
2018-03-24T20:38:39.614Z,4.30
2018-03-24T20:41:07.133Z,4.30
2018-03-24T20:43:35.425Z,4.20
2018-03-24T20:46:02.913Z,4.10
2018-03-24T20:48:30.401Z,4.10
2018-03-24T20:50:57.876Z,4.10
2018-03-24T20:53:25.392Z,4.10
2018-03-24T20:55:52.909Z,4.00
2018-03-24T20:58:20.446Z,3.90
2018-03-24T21:00:47.970Z,4.00
2018-03-24T21:03:15.487Z,3.90
2018-03-24T21:05:43.841Z,3.80
2018-03-24T21:08:11.376Z,3.80
2018-03-24T21:10:38.904Z,3.80
2018-03-24T21:13:06.406Z,3.80
2018-03-24T21:15:34.126Z,3.70
2018-03-24T21:18:01.618Z,3.70
2018-03-24T21:20:29.129Z,3.60
2018-03-24T21:22:56.645Z,3.70
2018-03-24T21:25:24.157Z,3.70
2018-03-24T21:27:51.681Z,3.60
2018-03-24T21:30:19.958Z,3.40
2018-03-24T21:32:48.253Z,3.40
2018-03-24T21:35:15.751Z,3.40
2018-03-24T21:37:43.277Z,3.40
2018-03-24T21:40:10.777Z,3.40
2018-03-24T21:42:38.284Z,3.40
2018-03-24T21:45:05.800Z,3.50
2018-03-24T21:47:34.820Z,3.30
2018-03-24T21:50:03.075Z,3.30
2018-03-24T21:52:30.552Z,3.30
2018-03-24T21:54:58.804Z,3.30
2018-03-24T21:57:26.336Z,3.20
2018-03-24T21:59:53.841Z,3.20
2018-03-24T22:02:21.362Z,3.00
2018-03-24T22:04:48.893Z,3.00
2018-03-24T22:07:16.414Z,3.00
2018-03-24T22:09:43.942Z,2.80
2018-03-24T22:12:11.426Z,2.90
2018-03-24T22:14:39.718Z,2.80
2018-03-24T22:17:07.207Z,2.80
2018-03-24T22:19:34.685Z,2.80
2018-03-24T22:22:02.172Z,2.80
2018-03-24T22:24:29.685Z,2.70
2018-03-24T22:26:57.180Z,2.60
2018-03-24T22:29:24.661Z,2.60
2018-03-24T22:31:53.000Z,2.60
2018-03-24T22:34:20.561Z,2.60
2018-03-24T22:36:48.026Z,2.60
2018-03-24T22:39:15.550Z,2.60
2018-03-24T22:41:43.117Z,2.50
2018-03-24T22:44:10.673Z,2.40
2018-03-24T22:46:38.176Z,2.50
2018-03-24T22:49:05.663Z,2.40
2018-03-24T22:51:33.156Z,2.30
2018-03-24T22:54:00.641Z,2.40
2018-03-24T22:56:28.154Z,2.30
2018-03-24T22:58:55.665Z,2.40
2018-03-24T23:01:23.193Z,2.20
2018-03-24T23:03:50.672Z,2.10
2018-03-24T23:06:18.988Z,2.10
2018-03-24T23:08:46.484Z,2.10
2018-03-24T23:11:13.969Z,2.00
2018-03-24T23:13:41.463Z,2.10
2018-03-24T23:16:09.125Z,2.00
2018-03-24T23:18:36.659Z,2.00
2018-03-24T23:21:04.929Z,2.00
2018-03-24T23:23:33.208Z,2.00
2018-03-24T23:26:00.735Z,1.90
2018-03-24T23:28:28.211Z,1.90
2018-03-24T23:30:55.751Z,1.80
2018-03-24T23:33:23.269Z,1.80
2018-03-24T23:35:50.943Z,1.80
2018-03-24T23:38:18.451Z,1.70
2018-03-24T23:40:45.928Z,1.70
2018-03-24T23:43:13.407Z,1.80
2018-03-24T23:45:40.913Z,1.70
2018-03-24T23:48:08.386Z,1.70
2018-03-24T23:50:36.623Z,1.60
2018-03-24T23:53:04.101Z,1.60
2018-03-24T23:55:31.571Z,1.60
2018-03-24T23:57:59.862Z,1.60
